sensor_id;sensor_type;location;lat;lon;timestamp;P1;durP1;ratioP1;P2;durP2;ratioP2
15049;SDS011;7622;42.724;23.250;2023-10-19T00:02:08;20.87;;;15.77;;
15049;SDS011;7622;42.724;23.250;2023-10-19T00:04:36;19.83;;;15.23;;
15049;SDS011;7622;42.724;23.250;2023-10-19T00:07:02;18.03;;;14.93;;
15049;SDS011;7622;42.724;23.250;2023-10-19T00:09:30;16.40;;;14.13;;
15049;SDS011;7622;42.724;23.250;2023-10-19T00:12:02;20.03;;;15.10;;
15049;SDS011;7622;42.724;23.250;2023-10-19T00:14:31;18.43;;;14.63;;
15049;SDS011;7622;42.724;23.250;2023-10-19T00:16:59;17.23;;;14.00;;
15049;SDS011;7622;42.724;23.250;2023-10-19T00:19:32;16.70;;;14.87;;
15049;SDS011;7622;42.724;23.250;2023-10-19T00:22:04;18.07;;;13.97;;
15049;SDS011;7622;42.724;23.250;2023-10-19T00:24:35;17.33;;;13.47;;
15049;SDS011;7622;42.724;23.250;2023-10-19T00:27:01;16.67;;;14.87;;
15049;SDS011;7622;42.724;23.250;2023-10-19T00:29:40;18.70;;;13.90;;
15049;SDS011;7622;42.724;23.250;2023-10-19T00:32:08;15.40;;;13.67;;
15049;SDS011;7622;42.724;23.250;2023-10-19T00:34:39;14.83;;;13.27;;
15049;SDS011;7622;42.724;23.250;2023-10-19T00:37:06;20.67;;;14.83;;
15049;SDS011;7622;42.724;23.250;2023-10-19T00:39:43;18.77;;;14.73;;
15049;SDS011;7622;42.724;23.250;2023-10-19T00:42:18;20.13;;;14.03;;
15049;SDS011;7622;42.724;23.250;2023-10-19T00:44:49;18.93;;;13.17;;
15049;SDS011;7622;42.724;23.250;2023-10-19T00:47:17;16.40;;;13.43;;
15049;SDS011;7622;42.724;23.250;2023-10-19T00:49:48;17.87;;;14.13;;
15049;SDS011;7622;42.724;23.250;2023-10-19T00:52:16;18.27;;;14.20;;
15049;SDS011;7622;42.724;23.250;2023-10-19T00:54:45;16.47;;;13.23;;
15049;SDS011;7622;42.724;23.250;2023-10-19T00:57:17;18.20;;;14.80;;
15049;SDS011;7622;42.724;23.250;2023-10-19T00:59:57;16.73;;;13.93;;
15049;SDS011;7622;42.724;23.250;2023-10-19T01:02:37;17.80;;;14.03;;
15049;SDS011;7622;42.724;23.250;2023-10-19T01:05:11;21.67;;;14.93;;
15049;SDS011;7622;42.724;23.250;2023-10-19T01:07:39;19.13;;;15.00;;
15049;SDS011;7622;42.724;23.250;2023-10-19T01:10:07;18.27;;;15.63;;
15049;SDS011;7622;42.724;23.250;2023-10-19T01:12:37;22.33;;;15.13;;
15049;SDS011;7622;42.724;23.250;2023-10-19T01:15:06;20.23;;;15.93;;
15049;SDS011;7622;42.724;23.250;2023-10-19T01:17:39;22.33;;;15.33;;
15049;SDS011;7622;42.724;23.250;2023-10-19T01:20:09;20.67;;;14.67;;
15049;SDS011;7622;42.724;23.250;2023-10-19T01:22:55;19.20;;;14.73;;
15049;SDS011;7622;42.724;23.250;2023-10-19T01:25:43;20.33;;;15.67;;
15049;SDS011;7622;42.724;23.250;2023-10-19T01:28:14;18.63;;;14.73;;
15049;SDS011;7622;42.724;23.250;2023-10-19T01:30:42;17.87;;;14.30;;
15049;SDS011;7622;42.724;23.250;2023-10-19T01:33:09;19.67;;;15.23;;
15049;SDS011;7622;42.724;23.250;2023-10-19T01:35:41;19.03;;;14.40;;
15049;SDS011;7622;42.724;23.250;2023-10-19T01:38:27;19.30;;;14.67;;
15049;SDS011;7622;42.724;23.250;2023-10-19T01:40:56;17.03;;;14.53;;
15049;SDS011;7622;42.724;23.250;2023-10-19T01:43:24;17.97;;;14.50;;
15049;SDS011;7622;42.724;23.250;2023-10-19T01:45:55;20.37;;;14.97;;
15049;SDS011;7622;42.724;23.250;2023-10-19T01:48:21;15.97;;;14.20;;
15049;SDS011;7622;42.724;23.250;2023-10-19T01:50:57;17.10;;;15.27;;
15049;SDS011;7622;42.724;23.250;2023-10-19T01:53:22;21.83;;;15.50;;
15049;SDS011;7622;42.724;23.250;2023-10-19T01:55:52;16.90;;;15.00;;
15049;SDS011;7622;42.724;23.250;2023-10-19T01:58:23;17.30;;;13.90;;
15049;SDS011;7622;42.724;23.250;2023-10-19T02:00:51;17.27;;;14.03;;
15049;SDS011;7622;42.724;23.250;2023-10-19T02:03:20;16.77;;;14.63;;
15049;SDS011;7622;42.724;23.250;2023-10-19T02:05:48;20.90;;;15.67;;
15049;SDS011;7622;42.724;23.250;2023-10-19T02:08:16;20.30;;;15.23;;
15049;SDS011;7622;42.724;23.250;2023-10-19T02:10:47;20.40;;;16.57;;
15049;SDS011;7622;42.724;23.250;2023-10-19T02:13:16;20.83;;;16.00;;
15049;SDS011;7622;42.724;23.250;2023-10-19T02:15:44;20.47;;;14.20;;
15049;SDS011;7622;42.724;23.250;2023-10-19T02:18:10;23.20;;;15.33;;
15049;SDS011;7622;42.724;23.250;2023-10-19T02:20:37;19.43;;;15.37;;
15049;SDS011;7622;42.724;23.250;2023-10-19T02:23:05;17.33;;;14.87;;
15049;SDS011;7622;42.724;23.250;2023-10-19T02:25:33;20.23;;;15.37;;
15049;SDS011;7622;42.724;23.250;2023-10-19T02:28:02;19.67;;;16.37;;
15049;SDS011;7622;42.724;23.250;2023-10-19T02:30:33;21.50;;;16.07;;
15049;SDS011;7622;42.724;23.250;2023-10-19T02:32:59;18.27;;;15.20;;
15049;SDS011;7622;42.724;23.250;2023-10-19T02:35:26;19.10;;;15.07;;
15049;SDS011;7622;42.724;23.250;2023-10-19T02:37:53;20.90;;;15.90;;
15049;SDS011;7622;42.724;23.250;2023-10-19T02:40:19;21.97;;;15.63;;
15049;SDS011;7622;42.724;23.250;2023-10-19T02:42:48;24.53;;;16.53;;
15049;SDS011;7622;42.724;23.250;2023-10-19T02:45:18;20.67;;;16.67;;
15049;SDS011;7622;42.724;23.250;2023-10-19T02:47:46;21.10;;;16.07;;
15049;SDS011;7622;42.724;23.250;2023-10-19T02:50:15;19.77;;;16.27;;
15049;SDS011;7622;42.724;23.250;2023-10-19T02:52:41;24.03;;;17.17;;
15049;SDS011;7622;42.724;23.250;2023-10-19T02:55:09;19.63;;;15.97;;
15049;SDS011;7622;42.724;23.250;2023-10-19T02:57:36;22.20;;;16.50;;
15049;SDS011;7622;42.724;23.250;2023-10-19T03:00:04;23.07;;;17.47;;
15049;SDS011;7622;42.724;23.250;2023-10-19T03:02:37;20.00;;;16.13;;
15049;SDS011;7622;42.724;23.250;2023-10-19T03:05:05;23.23;;;16.13;;
15049;SDS011;7622;42.724;23.250;2023-10-19T03:07:39;22.30;;;16.00;;
15049;SDS011;7622;42.724;23.250;2023-10-19T03:10:08;24.97;;;16.93;;
15049;SDS011;7622;42.724;23.250;2023-10-19T03:12:48;20.70;;;16.47;;
15049;SDS011;7622;42.724;23.250;2023-10-19T03:15:15;20.10;;;15.43;;
15049;SDS011;7622;42.724;23.250;2023-10-19T03:17:46;21.40;;;16.17;;
15049;SDS011;7622;42.724;23.250;2023-10-19T03:20:15;19.27;;;16.40;;
15049;SDS011;7622;42.724;23.250;2023-10-19T03:22:43;22.20;;;16.57;;
15049;SDS011;7622;42.724;23.250;2023-10-19T03:25:14;20.73;;;16.10;;
15049;SDS011;7622;42.724;23.250;2023-10-19T03:27:56;19.30;;;15.70;;
15049;SDS011;7622;42.724;23.250;2023-10-19T03:30:36;25.63;;;17.10;;
15049;SDS011;7622;42.724;23.250;2023-10-19T03:33:04;19.97;;;15.57;;
15049;SDS011;7622;42.724;23.250;2023-10-19T03:35:35;22.47;;;16.77;;
15049;SDS011;7622;42.724;23.250;2023-10-19T03:38:03;25.03;;;17.10;;
15049;SDS011;7622;42.724;23.250;2023-10-19T03:40:39;22.33;;;16.50;;
15049;SDS011;7622;42.724;23.250;2023-10-19T03:43:07;21.83;;;16.33;;
15049;SDS011;7622;42.724;23.250;2023-10-19T03:45:42;26.83;;;18.70;;
15049;SDS011;7622;42.724;23.250;2023-10-19T03:48:15;24.00;;;16.37;;
15049;SDS011;7622;42.724;23.250;2023-10-19T03:50:44;22.27;;;16.00;;
15049;SDS011;7622;42.724;23.250;2023-10-19T03:53:14;22.87;;;16.83;;
15049;SDS011;7622;42.724;23.250;2023-10-19T03:55:40;23.90;;;17.13;;
15049;SDS011;7622;42.724;23.250;2023-10-19T03:58:08;25.67;;;16.17;;
15049;SDS011;7622;42.724;23.250;2023-10-19T04:00:37;20.97;;;16.40;;
15049;SDS011;7622;42.724;23.250;2023-10-19T04:03:04;24.23;;;17.70;;
15049;SDS011;7622;42.724;23.250;2023-10-19T04:05:31;25.93;;;16.27;;
15049;SDS011;7622;42.724;23.250;2023-10-19T04:08:05;22.90;;;16.37;;
15049;SDS011;7622;42.724;23.250;2023-10-19T04:10:42;25.60;;;17.20;;
15049;SDS011;7622;42.724;23.250;2023-10-19T04:13:33;22.73;;;16.80;;
15049;SDS011;7622;42.724;23.250;2023-10-19T04:16:00;22.90;;;17.03;;
15049;SDS011;7622;42.724;23.250;2023-10-19T04:18:27;24.40;;;17.50;;
15049;SDS011;7622;42.724;23.250;2023-10-19T04:20:54;23.67;;;16.83;;
15049;SDS011;7622;42.724;23.250;2023-10-19T04:23:24;25.63;;;17.17;;
15049;SDS011;7622;42.724;23.250;2023-10-19T04:26:00;21.17;;;16.07;;
15049;SDS011;7622;42.724;23.250;2023-10-19T04:28:30;23.33;;;18.13;;
15049;SDS011;7622;42.724;23.250;2023-10-19T04:31:03;26.63;;;18.83;;
15049;SDS011;7622;42.724;23.250;2023-10-19T04:33:31;24.83;;;17.60;;
15049;SDS011;7622;42.724;23.250;2023-10-19T04:36:00;27.53;;;18.13;;
15049;SDS011;7622;42.724;23.250;2023-10-19T04:38:29;24.83;;;18.17;;
15049;SDS011;7622;42.724;23.250;2023-10-19T04:41:05;29.73;;;19.57;;
15049;SDS011;7622;42.724;23.250;2023-10-19T04:43:33;32.10;;;20.50;;
15049;SDS011;7622;42.724;23.250;2023-10-19T04:46:04;34.03;;;21.43;;
15049;SDS011;7622;42.724;23.250;2023-10-19T04:48:35;32.60;;;20.80;;
15049;SDS011;7622;42.724;23.250;2023-10-19T04:51:02;32.93;;;20.27;;
15049;SDS011;7622;42.724;23.250;2023-10-19T04:53:31;39.23;;;21.07;;
15049;SDS011;7622;42.724;23.250;2023-10-19T04:55:58;39.63;;;22.57;;
15049;SDS011;7622;42.724;23.250;2023-10-19T04:58:26;50.93;;;23.80;;
15049;SDS011;7622;42.724;23.250;2023-10-19T05:00:53;63.53;;;22.07;;
15049;SDS011;7622;42.724;23.250;2023-10-19T05:03:20;40.13;;;23.00;;
15049;SDS011;7622;42.724;23.250;2023-10-19T05:05:47;65.40;;;24.10;;
15049;SDS011;7622;42.724;23.250;2023-10-19T05:08:13;40.47;;;21.47;;
15049;SDS011;7622;42.724;23.250;2023-10-19T05:10:41;55.93;;;24.00;;
15049;SDS011;7622;42.724;23.250;2023-10-19T05:13:08;39.13;;;22.17;;
15049;SDS011;7622;42.724;23.250;2023-10-19T05:15:35;55.90;;;24.83;;
15049;SDS011;7622;42.724;23.250;2023-10-19T05:18:02;49.30;;;24.10;;
15049;SDS011;7622;42.724;23.250;2023-10-19T05:20:29;66.73;;;25.20;;
15049;SDS011;7622;42.724;23.250;2023-10-19T05:22:56;78.20;;;25.50;;
15049;SDS011;7622;42.724;23.250;2023-10-19T05:25:25;74.43;;;25.20;;
15049;SDS011;7622;42.724;23.250;2023-10-19T05:27:53;47.63;;;24.37;;
15049;SDS011;7622;42.724;23.250;2023-10-19T05:30:20;56.43;;;25.73;;
15049;SDS011;7622;42.724;23.250;2023-10-19T05:32:48;56.97;;;27.23;;
15049;SDS011;7622;42.724;23.250;2023-10-19T05:35:15;49.33;;;26.17;;
15049;SDS011;7622;42.724;23.250;2023-10-19T05:37:48;43.33;;;25.27;;
15049;SDS011;7622;42.724;23.250;2023-10-19T05:40:15;45.20;;;25.23;;
15049;SDS011;7622;42.724;23.250;2023-10-19T05:42:43;44.13;;;25.70;;
15049;SDS011;7622;42.724;23.250;2023-10-19T05:45:13;48.77;;;27.03;;
15049;SDS011;7622;42.724;23.250;2023-10-19T05:47:43;57.97;;;26.77;;
15049;SDS011;7622;42.724;23.250;2023-10-19T05:50:12;51.33;;;28.17;;
15049;SDS011;7622;42.724;23.250;2023-10-19T05:52:40;54.00;;;28.10;;
15049;SDS011;7622;42.724;23.250;2023-10-19T05:55:08;49.50;;;26.53;;
15049;SDS011;7622;42.724;23.250;2023-10-19T05:57:36;45.00;;;26.90;;
15049;SDS011;7622;42.724;23.250;2023-10-19T06:00:06;50.93;;;28.57;;
15049;SDS011;7622;42.724;23.250;2023-10-19T06:02:39;53.70;;;26.80;;
15049;SDS011;7622;42.724;23.250;2023-10-19T06:05:09;49.17;;;26.80;;
15049;SDS011;7622;42.724;23.250;2023-10-19T06:07:36;55.13;;;29.47;;
15049;SDS011;7622;42.724;23.250;2023-10-19T06:10:03;53.20;;;27.20;;
15049;SDS011;7622;42.724;23.250;2023-10-19T06:12:31;47.43;;;26.60;;
15049;SDS011;7622;42.724;23.250;2023-10-19T06:14:59;53.20;;;26.57;;
15049;SDS011;7622;42.724;23.250;2023-10-19T06:17:28;53.23;;;28.63;;
15049;SDS011;7622;42.724;23.250;2023-10-19T06:19:56;49.03;;;27.53;;
15049;SDS011;7622;42.724;23.250;2023-10-19T06:22:23;52.13;;;28.47;;
15049;SDS011;7622;42.724;23.250;2023-10-19T06:24:50;43.60;;;26.57;;
15049;SDS011;7622;42.724;23.250;2023-10-19T06:27:17;48.97;;;26.43;;
15049;SDS011;7622;42.724;23.250;2023-10-19T06:29:44;40.93;;;23.57;;
15049;SDS011;7622;42.724;23.250;2023-10-19T06:32:10;35.20;;;22.13;;
15049;SDS011;7622;42.724;23.250;2023-10-19T06:34:38;35.43;;;22.40;;
15049;SDS011;7622;42.724;23.250;2023-10-19T06:37:07;36.77;;;22.03;;
15049;SDS011;7622;42.724;23.250;2023-10-19T06:39:36;46.87;;;26.00;;
15049;SDS011;7622;42.724;23.250;2023-10-19T06:42:06;45.67;;;26.00;;
15049;SDS011;7622;42.724;23.250;2023-10-19T06:44:39;40.30;;;24.83;;
15049;SDS011;7622;42.724;23.250;2023-10-19T06:47:07;40.57;;;23.27;;
15049;SDS011;7622;42.724;23.250;2023-10-19T06:49:37;33.97;;;22.20;;
15049;SDS011;7622;42.724;23.250;2023-10-19T06:52:07;37.70;;;22.47;;
15049;SDS011;7622;42.724;23.250;2023-10-19T06:54:36;41.23;;;25.90;;
15049;SDS011;7622;42.724;23.250;2023-10-19T06:57:04;45.17;;;26.40;;
15049;SDS011;7622;42.724;23.250;2023-10-19T06:59:33;47.43;;;26.37;;
15049;SDS011;7622;42.724;23.250;2023-10-19T07:02:00;45.70;;;27.23;;
15049;SDS011;7622;42.724;23.250;2023-10-19T07:04:27;48.17;;;28.23;;
15049;SDS011;7622;42.724;23.250;2023-10-19T07:06:55;50.10;;;28.83;;
15049;SDS011;7622;42.724;23.250;2023-10-19T07:09:23;40.13;;;25.80;;
15049;SDS011;7622;42.724;23.250;2023-10-19T07:11:50;39.47;;;24.73;;
15049;SDS011;7622;42.724;23.250;2023-10-19T07:14:20;46.30;;;25.60;;
15049;SDS011;7622;42.724;23.250;2023-10-19T07:16:48;40.30;;;25.10;;
15049;SDS011;7622;42.724;23.250;2023-10-19T07:19:16;39.00;;;24.73;;
15049;SDS011;7622;42.724;23.250;2023-10-19T07:21:44;40.33;;;24.30;;
15049;SDS011;7622;42.724;23.250;2023-10-19T07:24:19;37.53;;;23.70;;
15049;SDS011;7622;42.724;23.250;2023-10-19T07:26:50;34.23;;;23.10;;
15049;SDS011;7622;42.724;23.250;2023-10-19T07:29:28;38.70;;;22.87;;
15049;SDS011;7622;42.724;23.250;2023-10-19T07:31:57;37.47;;;22.93;;
15049;SDS011;7622;42.724;23.250;2023-10-19T07:34:24;49.57;;;25.47;;
15049;SDS011;7622;42.724;23.250;2023-10-19T07:36:53;41.67;;;24.10;;
15049;SDS011;7622;42.724;23.250;2023-10-19T07:39:20;43.30;;;24.73;;
15049;SDS011;7622;42.724;23.250;2023-10-19T07:41:48;45.20;;;25.67;;
15049;SDS011;7622;42.724;23.250;2023-10-19T07:44:16;42.63;;;25.77;;
15049;SDS011;7622;42.724;23.250;2023-10-19T07:46:43;37.77;;;24.37;;
15049;SDS011;7622;42.724;23.250;2023-10-19T07:49:09;49.10;;;26.57;;
15049;SDS011;7622;42.724;23.250;2023-10-19T07:51:40;46.17;;;26.67;;
15049;SDS011;7622;42.724;23.250;2023-10-19T07:54:10;39.80;;;25.30;;
15049;SDS011;7622;42.724;23.250;2023-10-19T07:56:37;40.13;;;26.17;;
15049;SDS011;7622;42.724;23.250;2023-10-19T07:59:06;38.83;;;24.00;;
15049;SDS011;7622;42.724;23.250;2023-10-19T08:01:34;49.93;;;24.83;;
15049;SDS011;7622;42.724;23.250;2023-10-19T08:04:01;40.70;;;23.70;;
15049;SDS011;7622;42.724;23.250;2023-10-19T08:06:28;32.97;;;22.53;;
15049;SDS011;7622;42.724;23.250;2023-10-19T08:08:56;31.90;;;21.73;;
15049;SDS011;7622;42.724;23.250;2023-10-19T08:11:23;30.73;;;21.87;;
15049;SDS011;7622;42.724;23.250;2023-10-19T08:13:50;32.80;;;21.33;;
15049;SDS011;7622;42.724;23.250;2023-10-19T08:16:16;31.17;;;22.10;;
15049;SDS011;7622;42.724;23.250;2023-10-19T08:18:44;29.03;;;21.17;;
15049;SDS011;7622;42.724;23.250;2023-10-19T08:21:11;31.03;;;22.17;;
15049;SDS011;7622;42.724;23.250;2023-10-19T08:23:38;28.20;;;21.30;;
15049;SDS011;7622;42.724;23.250;2023-10-19T08:26:05;28.60;;;21.23;;
15049;SDS011;7622;42.724;23.250;2023-10-19T08:28:32;26.63;;;20.30;;
15049;SDS011;7622;42.724;23.250;2023-10-19T08:30:59;27.93;;;19.23;;
15049;SDS011;7622;42.724;23.250;2023-10-19T08:33:28;28.30;;;21.33;;
15049;SDS011;7622;42.724;23.250;2023-10-19T08:36:01;25.40;;;19.83;;
15049;SDS011;7622;42.724;23.250;2023-10-19T08:38:27;24.33;;;18.73;;
15049;SDS011;7622;42.724;23.250;2023-10-19T08:40:53;27.63;;;17.40;;
15049;SDS011;7622;42.724;23.250;2023-10-19T08:43:23;21.53;;;16.80;;
15049;SDS011;7622;42.724;23.250;2023-10-19T08:45:54;17.67;;;15.83;;
15049;SDS011;7622;42.724;23.250;2023-10-19T08:48:22;19.10;;;17.03;;
15049;SDS011;7622;42.724;23.250;2023-10-19T08:50:49;20.93;;;15.97;;
15049;SDS011;7622;42.724;23.250;2023-10-19T08:53:19;17.10;;;13.93;;
15049;SDS011;7622;42.724;23.250;2023-10-19T08:55:48;15.13;;;13.53;;
15049;SDS011;7622;42.724;23.250;2023-10-19T08:58:15;16.73;;;15.03;;
15049;SDS011;7622;42.724;23.250;2023-10-19T09:00:44;16.67;;;14.73;;
15049;SDS011;7622;42.724;23.250;2023-10-19T09:03:14;17.00;;;14.87;;
15049;SDS011;7622;42.724;23.250;2023-10-19T09:05:42;18.17;;;13.63;;
15049;SDS011;7622;42.724;23.250;2023-10-19T09:08:13;14.27;;;12.77;;
15049;SDS011;7622;42.724;23.250;2023-10-19T09:10:43;16.40;;;12.10;;
15049;SDS011;7622;42.724;23.250;2023-10-19T09:13:11;15.53;;;11.50;;
15049;SDS011;7622;42.724;23.250;2023-10-19T09:15:41;11.90;;;10.90;;
15049;SDS011;7622;42.724;23.250;2023-10-19T09:18:14;15.33;;;12.57;;
15049;SDS011;7622;42.724;23.250;2023-10-19T09:20:43;15.10;;;12.80;;
15049;SDS011;7622;42.724;23.250;2023-10-19T09:23:18;14.97;;;13.23;;
15049;SDS011;7622;42.724;23.250;2023-10-19T09:25:48;12.53;;;10.60;;
15049;SDS011;7622;42.724;23.250;2023-10-19T09:28:17;11.63;;;10.47;;
15049;SDS011;7622;42.724;23.250;2023-10-19T09:30:44;11.67;;;10.47;;
15049;SDS011;7622;42.724;23.250;2023-10-19T09:33:12;12.37;;;11.10;;
15049;SDS011;7622;42.724;23.250;2023-10-19T09:35:42;11.80;;;10.33;;
15049;SDS011;7622;42.724;23.250;2023-10-19T09:38:13;13.47;;;11.53;;
15049;SDS011;7622;42.724;23.250;2023-10-19T09:40:40;13.37;;;11.80;;
15049;SDS011;7622;42.724;23.250;2023-10-19T09:43:15;13.87;;;11.13;;
15049;SDS011;7622;42.724;23.250;2023-10-19T09:45:49;12.33;;;11.13;;
15049;SDS011;7622;42.724;23.250;2023-10-19T09:48:20;14.70;;;11.37;;
15049;SDS011;7622;42.724;23.250;2023-10-19T09:50:50;15.97;;;11.57;;
15049;SDS011;7622;42.724;23.250;2023-10-19T09:55:49;11.93;;;10.70;;
15049;SDS011;7622;42.724;23.250;2023-10-19T09:58:23;11.83;;;10.63;;
15049;SDS011;7622;42.724;23.250;2023-10-19T10:00:52;13.87;;;11.23;;
15049;SDS011;7622;42.724;23.250;2023-10-19T10:06:12;12.13;;;10.93;;
15049;SDS011;7622;42.724;23.250;2023-10-19T10:08:40;11.63;;;10.27;;
15049;SDS011;7622;42.724;23.250;2023-10-19T10:11:18;11.67;;;10.50;;
15049;SDS011;7622;42.724;23.250;2023-10-19T10:13:47;12.93;;;11.67;;
15049;SDS011;7622;42.724;23.250;2023-10-19T10:16:18;12.10;;;10.90;;
15049;SDS011;7622;42.724;23.250;2023-10-19T10:18:47;13.70;;;11.40;;
15049;SDS011;7622;42.724;23.250;2023-10-19T10:21:16;13.27;;;11.97;;
15049;SDS011;7622;42.724;23.250;2023-10-19T10:23:47;11.60;;;9.93;;
15049;SDS011;7622;42.724;23.250;2023-10-19T10:26:15;15.20;;;9.83;;
15049;SDS011;7622;42.724;23.250;2023-10-19T10:28:45;11.87;;;10.60;;
15049;SDS011;7622;42.724;23.250;2023-10-19T10:31:18;11.03;;;9.97;;
15049;SDS011;7622;42.724;23.250;2023-10-19T10:33:47;11.03;;;10.13;;
15049;SDS011;7622;42.724;23.250;2023-10-19T10:36:16;11.03;;;10.03;;
15049;SDS011;7622;42.724;23.250;2023-10-19T10:38:45;13.10;;;10.20;;
15049;SDS011;7622;42.724;23.250;2023-10-19T10:41:12;10.43;;;9.50;;
15049;SDS011;7622;42.724;23.250;2023-10-19T10:43:51;10.70;;;9.80;;
15049;SDS011;7622;42.724;23.250;2023-10-19T10:46:22;15.63;;;10.60;;
15049;SDS011;7622;42.724;23.250;2023-10-19T10:48:49;11.77;;;9.50;;
15049;SDS011;7622;42.724;23.250;2023-10-19T10:51:20;11.40;;;10.30;;
15049;SDS011;7622;42.724;23.250;2023-10-19T10:53:48;11.77;;;10.57;;
15049;SDS011;7622;42.724;23.250;2023-10-19T10:56:16;10.70;;;9.60;;
15049;SDS011;7622;42.724;23.250;2023-10-19T10:58:43;11.93;;;9.33;;
15049;SDS011;7622;42.724;23.250;2023-10-19T11:01:10;11.13;;;9.20;;
15049;SDS011;7622;42.724;23.250;2023-10-19T11:03:39;10.83;;;9.73;;
15049;SDS011;7622;42.724;23.250;2023-10-19T11:06:07;10.10;;;9.10;;
15049;SDS011;7622;42.724;23.250;2023-10-19T11:08:35;11.43;;;9.20;;
15049;SDS011;7622;42.724;23.250;2023-10-19T11:11:04;8.80;;;7.93;;
15049;SDS011;7622;42.724;23.250;2023-10-19T11:13:31;8.53;;;7.90;;
15049;SDS011;7622;42.724;23.250;2023-10-19T11:16:03;8.50;;;7.80;;
15049;SDS011;7622;42.724;23.250;2023-10-19T11:18:32;9.40;;;8.70;;
15049;SDS011;7622;42.724;23.250;2023-10-19T11:21:02;8.40;;;7.70;;
15049;SDS011;7622;42.724;23.250;2023-10-19T11:23:38;11.90;;;8.03;;
15049;SDS011;7622;42.724;23.250;2023-10-19T11:26:07;8.17;;;7.37;;
15049;SDS011;7622;42.724;23.250;2023-10-19T11:28:35;9.10;;;8.27;;
15049;SDS011;7622;42.724;23.250;2023-10-19T11:31:11;8.23;;;7.37;;
15049;SDS011;7622;42.724;23.250;2023-10-19T11:33:42;8.37;;;7.57;;
15049;SDS011;7622;42.724;23.250;2023-10-19T11:36:11;9.13;;;6.70;;
15049;SDS011;7622;42.724;23.250;2023-10-19T11:38:41;7.13;;;6.17;;
15049;SDS011;7622;42.724;23.250;2023-10-19T11:41:09;8.97;;;6.77;;
15049;SDS011;7622;42.724;23.250;2023-10-19T11:43:36;10.20;;;7.20;;
15049;SDS011;7622;42.724;23.250;2023-10-19T11:46:02;7.57;;;5.83;;
15049;SDS011;7622;42.724;23.250;2023-10-19T11:48:31;9.70;;;6.73;;
15049;SDS011;7622;42.724;23.250;2023-10-19T11:50:59;7.37;;;6.77;;
15049;SDS011;7622;42.724;23.250;2023-10-19T11:53:30;7.20;;;6.60;;
15049;SDS011;7622;42.724;23.250;2023-10-19T11:56:00;8.57;;;6.70;;
15049;SDS011;7622;42.724;23.250;2023-10-19T11:58:29;7.20;;;6.60;;
15049;SDS011;7622;42.724;23.250;2023-10-19T12:00:57;7.27;;;6.57;;
15049;SDS011;7622;42.724;23.250;2023-10-19T12:03:24;6.60;;;6.00;;
15049;SDS011;7622;42.724;23.250;2023-10-19T12:05:51;5.80;;;5.30;;
15049;SDS011;7622;42.724;23.250;2023-10-19T12:08:20;7.20;;;5.83;;
15049;SDS011;7622;42.724;23.250;2023-10-19T12:10:48;8.20;;;6.60;;
15049;SDS011;7622;42.724;23.250;2023-10-19T12:13:15;6.73;;;6.33;;
15049;SDS011;7622;42.724;23.250;2023-10-19T12:15:42;7.10;;;6.40;;
15049;SDS011;7622;42.724;23.250;2023-10-19T12:18:16;6.97;;;6.37;;
15049;SDS011;7622;42.724;23.250;2023-10-19T12:20:44;9.17;;;6.50;;
15049;SDS011;7622;42.724;23.250;2023-10-19T12:23:11;8.17;;;6.13;;
15049;SDS011;7622;42.724;23.250;2023-10-19T12:25:38;7.13;;;6.47;;
15049;SDS011;7622;42.724;23.250;2023-10-19T12:28:06;6.87;;;6.27;;
15049;SDS011;7622;42.724;23.250;2023-10-19T12:30:33;6.63;;;6.10;;
15049;SDS011;7622;42.724;23.250;2023-10-19T12:33:02;6.33;;;5.73;;
15049;SDS011;7622;42.724;23.250;2023-10-19T12:35:32;6.93;;;6.33;;
15049;SDS011;7622;42.724;23.250;2023-10-19T12:38:10;9.13;;;6.33;;
15049;SDS011;7622;42.724;23.250;2023-10-19T12:40:41;6.60;;;5.57;;
15049;SDS011;7622;42.724;23.250;2023-10-19T12:43:10;6.43;;;5.83;;
15049;SDS011;7622;42.724;23.250;2023-10-19T12:45:37;7.73;;;5.80;;
15049;SDS011;7622;42.724;23.250;2023-10-19T12:48:04;6.37;;;5.67;;
15049;SDS011;7622;42.724;23.250;2023-10-19T12:50:33;6.40;;;5.80;;
15049;SDS011;7622;42.724;23.250;2023-10-19T12:53:01;5.53;;;5.03;;
15049;SDS011;7622;42.724;23.250;2023-10-19T12:55:28;6.00;;;5.40;;
15049;SDS011;7622;42.724;23.250;2023-10-19T12:57:56;6.60;;;5.97;;
15049;SDS011;7622;42.724;23.250;2023-10-19T13:00:26;7.43;;;6.27;;
15049;SDS011;7622;42.724;23.250;2023-10-19T13:02:54;6.03;;;5.60;;
15049;SDS011;7622;42.724;23.250;2023-10-19T13:05:26;6.30;;;5.70;;
15049;SDS011;7622;42.724;23.250;2023-10-19T13:07:53;6.67;;;6.07;;
15049;SDS011;7622;42.724;23.250;2023-10-19T13:10:23;6.17;;;5.67;;
15049;SDS011;7622;42.724;23.250;2023-10-19T13:12:57;5.80;;;5.30;;
15049;SDS011;7622;42.724;23.250;2023-10-19T13:15:30;6.10;;;5.70;;
15049;SDS011;7622;42.724;23.250;2023-10-19T13:17:57;7.30;;;5.60;;
15049;SDS011;7622;42.724;23.250;2023-10-19T13:20:25;7.67;;;5.37;;
15049;SDS011;7622;42.724;23.250;2023-10-19T13:22:52;8.27;;;5.80;;
15049;SDS011;7622;42.724;23.250;2023-10-19T13:25:19;7.40;;;4.70;;
15049;SDS011;7622;42.724;23.250;2023-10-19T13:28:04;7.57;;;4.83;;
15049;SDS011;7622;42.724;23.250;2023-10-19T13:30:36;5.93;;;5.40;;
15049;SDS011;7622;42.724;23.250;2023-10-19T13:33:04;5.83;;;5.33;;
15049;SDS011;7622;42.724;23.250;2023-10-19T13:35:35;6.83;;;5.67;;
15049;SDS011;7622;42.724;23.250;2023-10-19T13:38:05;7.07;;;5.37;;
15049;SDS011;7622;42.724;23.250;2023-10-19T13:40:36;6.10;;;5.60;;
15049;SDS011;7622;42.724;23.250;2023-10-19T13:43:05;5.63;;;5.23;;
15049;SDS011;7622;42.724;23.250;2023-10-19T13:45:33;5.20;;;4.87;;
15049;SDS011;7622;42.724;23.250;2023-10-19T13:48:03;5.53;;;5.20;;
15049;SDS011;7622;42.724;23.250;2023-10-19T13:50:30;8.07;;;5.37;;
15049;SDS011;7622;42.724;23.250;2023-10-19T13:52:58;6.30;;;5.70;;
15049;SDS011;7622;42.724;23.250;2023-10-19T13:55:25;6.10;;;5.50;;
15049;SDS011;7622;42.724;23.250;2023-10-19T13:57:53;8.00;;;6.37;;
15049;SDS011;7622;42.724;23.250;2023-10-19T14:00:21;9.93;;;6.50;;
15049;SDS011;7622;42.724;23.250;2023-10-19T14:02:55;6.67;;;5.57;;
15049;SDS011;7622;42.724;23.250;2023-10-19T14:05:25;6.87;;;5.93;;
15049;SDS011;7622;42.724;23.250;2023-10-19T14:07:52;6.20;;;5.53;;
15049;SDS011;7622;42.724;23.250;2023-10-19T14:10:19;6.60;;;5.90;;
15049;SDS011;7622;42.724;23.250;2023-10-19T14:12:47;7.13;;;5.87;;
15049;SDS011;7622;42.724;23.250;2023-10-19T14:15:15;6.10;;;5.50;;
15049;SDS011;7622;42.724;23.250;2023-10-19T14:17:44;6.10;;;5.50;;
15049;SDS011;7622;42.724;23.250;2023-10-19T14:20:13;6.43;;;5.03;;
15049;SDS011;7622;42.724;23.250;2023-10-19T14:22:42;4.67;;;4.37;;
15049;SDS011;7622;42.724;23.250;2023-10-19T14:25:09;10.03;;;5.43;;
15049;SDS011;7622;42.724;23.250;2023-10-19T14:27:41;6.57;;;5.00;;
15049;SDS011;7622;42.724;23.250;2023-10-19T14:30:10;7.83;;;4.90;;
15049;SDS011;7622;42.724;23.250;2023-10-19T14:32:39;5.10;;;4.67;;
15049;SDS011;7622;42.724;23.250;2023-10-19T14:35:08;5.10;;;4.80;;
15049;SDS011;7622;42.724;23.250;2023-10-19T14:37:39;4.50;;;4.20;;
15049;SDS011;7622;42.724;23.250;2023-10-19T14:40:12;5.50;;;5.00;;
15049;SDS011;7622;42.724;23.250;2023-10-19T14:42:42;5.90;;;4.83;;
15049;SDS011;7622;42.724;23.250;2023-10-19T14:45:12;9.40;;;4.67;;
15049;SDS011;7622;42.724;23.250;2023-10-19T14:47:42;8.27;;;5.00;;